Terminal Aerodrome Forecast
Issued by NWS Birmingham, AL

Home | Current Version | Previous Version | Text Only | Print | Product List | Glossary On
Versions: 1 2 3 4 5 6 7 8 9 10 11 12 13 14 15 16 17 18 19 20 21 22 23 24 25 26 27 28 29 30 31 32 33 34 35 36 37 38 39 40 41 42 43 44
623
FTUS44 KBMX 191741
TAFBHM
TAF
KBHM 191741Z 1918/2018 27013G22KT P6SM -SHRA BKN015 OVC022
     FM192100 27016G28KT 5SM -SHRA BKN015 OVC025
     FM200400 25012KT P6SM VCSH OVC007
     FM201300 26009G18KT P6SM BKN025=

USA.gov is the U.S. government's official web portal to all federal, state and local government web resources and services.